createdAt,value
2018-03-03T00:02:03.114Z,-8.58
2018-03-03T00:04:28.934Z,-8.74
2018-03-03T00:06:54.969Z,-8.53
2018-03-03T00:09:20.778Z,-8.68
2018-03-03T00:11:46.572Z,-8.54
2018-03-03T00:14:12.376Z,-8.59
2018-03-03T00:16:38.155Z,-8.78
2018-03-03T00:19:04.051Z,-8.61
2018-03-03T00:21:29.848Z,-8.68
2018-03-03T00:23:55.651Z,-8.92
2018-03-03T00:26:21.436Z,-8.62
2018-03-03T00:28:47.238Z,-8.65
2018-03-03T00:31:13.018Z,-8.48
2018-03-03T00:33:38.801Z,-8.72
2018-03-03T00:36:04.611Z,-8.71
2018-03-03T00:38:30.699Z,-8.73
2018-03-03T00:40:56.575Z,-9.16
2018-03-03T00:43:22.864Z,-8.93
2018-03-03T00:45:48.662Z,-8.79
2018-03-03T00:48:14.482Z,-8.72
2018-03-03T00:50:40.299Z,-9.05
2018-03-03T00:53:06.144Z,-9.08
2018-03-03T00:55:31.941Z,-9.05
2018-03-03T00:57:57.746Z,-8.84
2018-03-03T01:00:23.547Z,-8.88
2018-03-03T01:02:49.332Z,-8.93
2018-03-03T01:05:15.132Z,-9.14
2018-03-03T01:07:40.911Z,-9.12
2018-03-03T01:10:06.700Z,-9.13
2018-03-03T01:12:32.506Z,-9.06
2018-03-03T01:14:58.313Z,-9.16
2018-03-03T01:17:24.117Z,-9.30
2018-03-03T01:19:49.915Z,-9.21
2018-03-03T01:22:15.705Z,-9.20
2018-03-03T01:24:41.487Z,-8.96
2018-03-03T01:27:07.312Z,-9.08
2018-03-03T01:29:33.087Z,-9.15
2018-03-03T01:31:58.879Z,-9.16
2018-03-03T01:34:24.710Z,-9.08
2018-03-03T01:36:50.500Z,-9.27
2018-03-03T01:39:16.563Z,-9.24
2018-03-03T01:41:42.844Z,-9.25
2018-03-03T01:44:09.069Z,-9.24
2018-03-03T01:46:34.892Z,-9.02
2018-03-03T01:49:00.683Z,-8.94
2018-03-03T01:51:39.219Z,-9.13
2018-03-03T01:54:04.992Z,-9.50
2018-03-03T01:56:30.788Z,-9.37
2018-03-03T01:58:56.737Z,-9.24
2018-03-03T02:01:22.603Z,-9.41
2018-03-03T02:03:48.392Z,-9.19
2018-03-03T02:06:14.202Z,-9.08
2018-03-03T02:08:40.004Z,-9.33
2018-03-03T02:11:05.803Z,-9.04
2018-03-03T02:13:31.598Z,-9.10
2018-03-03T02:15:57.385Z,-9.04
2018-03-03T02:18:23.194Z,-9.25
2018-03-03T02:20:48.979Z,-9.17
2018-03-03T02:23:21.698Z,-9.39
2018-03-03T02:25:47.491Z,-9.38
2018-03-03T02:28:13.266Z,-9.29
2018-03-03T02:30:39.067Z,-9.35
2018-03-03T02:33:04.872Z,-9.42
2018-03-03T02:35:30.674Z,-9.09
2018-03-03T02:37:56.462Z,-9.10
2018-03-03T02:40:22.381Z,-9.37
2018-03-03T02:42:48.172Z,-9.02
2018-03-03T02:45:13.975Z,-9.08
2018-03-03T02:47:39.755Z,-9.24
2018-03-03T02:50:05.659Z,-9.17
2018-03-03T02:52:31.454Z,-9.31
2018-03-03T02:54:57.524Z,-9.14
2018-03-03T02:57:23.306Z,-9.24
2018-03-03T02:59:49.159Z,-9.52
2018-03-03T03:02:14.963Z,-9.34
2018-03-03T03:04:40.743Z,-9.26
2018-03-03T03:07:06.522Z,-9.19
2018-03-03T03:09:32.343Z,-9.02
2018-03-03T03:11:58.123Z,-9.02
2018-03-03T03:14:23.906Z,-9.03
2018-03-03T03:16:49.778Z,-9.03
2018-03-03T03:19:15.566Z,-9.20
2018-03-03T03:21:41.351Z,-9.15
2018-03-03T03:24:07.172Z,-9.16
2018-03-03T03:26:32.963Z,-9.33
2018-03-03T03:28:58.751Z,-9.37
2018-03-03T03:31:24.564Z,-9.39
2018-03-03T03:33:50.406Z,-9.04
2018-03-03T03:36:16.194Z,-9.08
2018-03-03T03:38:42.009Z,-9.26
2018-03-03T03:41:07.798Z,-9.49
2018-03-03T03:43:33.592Z,-9.31
2018-03-03T03:45:59.391Z,-9.12
2018-03-03T03:48:25.181Z,-9.36
2018-03-03T03:50:50.971Z,-9.04
2018-03-03T03:53:16.770Z,-9.06
2018-03-03T03:55:42.568Z,-9.00
2018-03-03T03:58:08.350Z,-9.19
2018-03-03T04:00:34.171Z,-9.53
2018-03-03T04:02:59.986Z,-9.35
2018-03-03T04:05:25.769Z,-9.36
2018-03-03T04:07:51.569Z,-8.96
2018-03-03T04:10:17.350Z,-9.37
2018-03-03T04:12:43.166Z,-9.36
2018-03-03T04:15:08.999Z,-9.43
2018-03-03T04:17:34.799Z,-9.59
2018-03-03T04:20:00.614Z,-9.49
2018-03-03T04:22:26.398Z,-9.61
2018-03-03T04:24:52.214Z,-9.34
2018-03-03T04:27:18.042Z,-9.58
2018-03-03T04:29:43.835Z,-9.63
2018-03-03T04:32:09.638Z,-9.51
2018-03-03T04:34:35.763Z,-9.49
2018-03-03T04:37:01.570Z,-9.16
2018-03-03T04:39:27.400Z,-9.32
2018-03-03T04:41:53.351Z,-9.62
2018-03-03T04:44:19.155Z,-9.49
2018-03-03T04:46:44.957Z,-9.44
2018-03-03T04:49:10.983Z,-9.56
2018-03-03T04:51:36.739Z,-9.62
2018-03-03T04:54:02.566Z,-9.36
2018-03-03T04:56:29.195Z,-9.42
2018-03-03T04:58:56.951Z,-9.43
2018-03-03T05:01:22.814Z,-9.46
2018-03-03T05:03:54.615Z,-9.50
2018-03-03T05:06:27.300Z,-9.65
2018-03-03T05:08:53.103Z,-9.76
2018-03-03T05:11:18.930Z,-9.51
2018-03-03T05:13:44.724Z,-9.68
2018-03-03T05:16:16.706Z,-9.43
2018-03-03T05:18:48.437Z,-9.72
2018-03-03T05:24:26.833Z,-9.86
2018-03-03T05:26:58.766Z,-9.78
2018-03-03T05:29:29.383Z,-9.98
2018-03-03T05:32:01.319Z,-9.66
2018-03-03T05:37:32.994Z,-9.89
2018-03-03T05:40:04.772Z,-9.68
2018-03-03T05:42:36.662Z,-9.62
2018-03-03T05:45:08.574Z,-9.36
2018-03-03T05:47:40.420Z,-9.52
2018-03-03T05:53:08.503Z,-9.21
2018-03-03T05:58:41.219Z,-9.68
2018-03-03T06:01:17.899Z,-9.54
2018-03-03T06:03:51.499Z,-9.69
2018-03-03T06:06:17.315Z,-9.77
2018-03-03T06:08:49.314Z,-9.83
2018-03-03T06:11:15.127Z,-9.92
2018-03-03T06:13:40.942Z,-9.90
2018-03-03T06:16:07.053Z,-9.82
2018-03-03T06:18:32.865Z,-9.99
2018-03-03T06:20:58.760Z,-9.80
2018-03-03T06:23:25.248Z,-9.81
2018-03-03T06:25:51.052Z,-10.00
2018-03-03T06:28:16.870Z,-9.83
2018-03-03T06:30:42.678Z,-9.79
2018-03-03T06:33:08.479Z,-9.68
2018-03-03T06:35:34.282Z,-9.70
2018-03-03T06:38:00.335Z,-9.89
2018-03-03T06:40:26.147Z,-9.79
2018-03-03T06:42:51.941Z,-9.89
2018-03-03T06:45:17.758Z,-9.97
2018-03-03T06:47:43.551Z,-10.01
2018-03-03T06:50:09.340Z,-9.88
2018-03-03T06:52:35.134Z,-9.84
2018-03-03T06:55:01.591Z,-9.90
2018-03-03T06:57:27.474Z,-9.71
2018-03-03T06:59:53.282Z,-9.62
2018-03-03T07:02:19.081Z,-9.69
2018-03-03T07:04:44.899Z,-9.68
2018-03-03T07:07:10.683Z,-9.62
2018-03-03T07:09:36.466Z,-9.69
2018-03-03T07:12:02.282Z,-9.68
2018-03-03T07:14:32.044Z,-9.53
2018-03-03T07:16:57.874Z,-9.52
2018-03-03T07:19:23.980Z,-9.38
2018-03-03T07:21:49.774Z,-9.47
2018-03-03T07:24:15.566Z,-9.42
2018-03-03T07:26:41.375Z,-9.27
2018-03-03T07:29:07.172Z,-9.30
2018-03-03T07:31:32.970Z,-9.24
2018-03-03T07:33:58.758Z,-9.31
2018-03-03T07:36:24.552Z,-9.29
2018-03-03T07:38:50.362Z,-9.30
2018-03-03T07:41:16.169Z,-9.12
2018-03-03T07:43:41.975Z,-8.97
2018-03-03T07:46:07.796Z,-8.99
2018-03-03T07:48:34.673Z,-8.94
2018-03-03T07:51:00.612Z,-8.92
2018-03-03T07:53:26.750Z,-8.83
2018-03-03T07:55:53.358Z,-8.66
2018-03-03T08:01:19.330Z,-8.29
2018-03-03T08:03:45.157Z,-8.32
2018-03-03T08:06:11.377Z,-8.23
2018-03-03T08:08:37.257Z,-8.22
2018-03-03T08:11:03.070Z,-8.21
2018-03-03T08:13:28.862Z,-8.21
2018-03-03T08:15:54.961Z,-8.09
2018-03-03T08:18:21.358Z,-8.01
2018-03-03T08:20:47.146Z,-7.90
2018-03-03T08:23:12.966Z,-7.83
2018-03-03T08:25:45.811Z,-7.70
2018-03-03T08:28:11.615Z,-7.71
2018-03-03T08:30:37.471Z,-7.59
2018-03-03T08:33:03.294Z,-7.53
2018-03-03T08:35:30.259Z,-7.50
2018-03-03T08:37:56.356Z,-7.45
2018-03-03T08:40:22.180Z,-7.45
2018-03-03T08:42:48.010Z,-7.43
2018-03-03T08:45:13.821Z,-7.42
2018-03-03T08:47:39.791Z,-7.48
2018-03-03T08:50:05.655Z,-7.22
2018-03-03T08:52:31.601Z,-7.26
2018-03-03T08:54:57.355Z,-7.27
2018-03-03T08:57:23.223Z,-7.34
2018-03-03T08:59:49.046Z,-7.28
2018-03-03T09:02:14.848Z,-7.17
2018-03-03T09:04:40.671Z,-7.16
2018-03-03T09:07:06.473Z,-6.39
2018-03-03T09:09:33.228Z,-6.77
2018-03-03T09:11:59.111Z,-7.01
2018-03-03T09:14:24.932Z,-6.85
2018-03-03T09:16:50.754Z,-6.64
2018-03-03T09:19:16.571Z,-6.74
2018-03-03T09:21:42.415Z,-6.52
2018-03-03T09:24:08.234Z,-6.55
2018-03-03T09:26:34.038Z,-6.42
2018-03-03T09:28:59.829Z,-6.34
2018-03-03T09:31:25.806Z,-6.23
2018-03-03T09:33:52.364Z,-5.96
2018-03-03T09:36:18.206Z,-5.89
2018-03-03T09:38:44.023Z,-5.76
2018-03-03T09:41:09.823Z,-5.72
2018-03-03T09:43:36.203Z,-5.66
2018-03-03T09:46:02.322Z,-5.48
2018-03-03T09:48:28.901Z,-5.44
2018-03-03T09:50:54.873Z,-5.54
2018-03-03T09:53:21.410Z,-5.22
2018-03-03T09:55:47.284Z,-5.37
2018-03-03T09:58:13.110Z,-5.16
2018-03-03T10:00:39.168Z,-4.85
2018-03-03T10:03:06.447Z,-4.71
2018-03-03T10:05:32.252Z,-4.64
2018-03-03T10:07:58.581Z,-4.21
2018-03-03T10:10:24.634Z,-4.14
2018-03-03T10:12:50.422Z,-4.37
2018-03-03T10:15:16.329Z,-3.81
2018-03-03T10:17:42.118Z,-3.48
2018-03-03T10:20:07.929Z,-3.99
2018-03-03T10:22:33.756Z,-4.18
2018-03-03T10:24:59.558Z,-3.83
2018-03-03T10:27:25.395Z,-3.90
2018-03-03T10:29:51.235Z,-3.98
2018-03-03T10:32:17.059Z,-4.17
2018-03-03T10:34:42.871Z,-3.95
2018-03-03T10:37:08.683Z,-3.92
2018-03-03T10:39:34.524Z,-3.48
2018-03-03T10:42:00.802Z,-3.45
2018-03-03T10:44:26.626Z,-3.02
2018-03-03T10:46:52.433Z,-3.14
2018-03-03T10:49:18.240Z,-3.35
2018-03-03T10:51:44.926Z,-3.23
2018-03-03T10:54:10.723Z,-3.36
2018-03-03T10:56:36.555Z,-3.39
2018-03-03T10:59:02.406Z,-3.03
2018-03-03T11:01:28.252Z,-3.43
2018-03-03T11:03:54.059Z,-3.51
2018-03-03T11:06:26.930Z,-3.54
2018-03-03T11:08:52.750Z,-3.49
2018-03-03T11:11:18.554Z,-3.54
2018-03-03T11:13:45.147Z,-3.55
2018-03-03T11:16:10.940Z,-3.37
2018-03-03T11:18:36.784Z,-3.30
2018-03-03T11:21:02.579Z,-3.32
2018-03-03T11:23:28.788Z,-3.38
2018-03-03T11:25:54.616Z,-3.09
2018-03-03T11:28:20.601Z,-2.95
2018-03-03T11:30:46.399Z,-3.24
2018-03-03T11:33:12.292Z,-3.38
2018-03-03T11:35:38.083Z,-3.35
2018-03-03T11:38:03.936Z,-3.26
2018-03-03T11:40:33.136Z,-2.98
2018-03-03T11:42:55.530Z,-3.00
2018-03-03T11:45:21.378Z,-2.87
2018-03-03T11:47:47.186Z,-2.78
2018-03-03T11:50:13.053Z,-2.82
2018-03-03T11:52:39.196Z,-2.82
2018-03-03T11:55:05.004Z,-3.01
2018-03-03T11:57:31.786Z,-2.89
2018-03-03T11:59:57.634Z,-2.97
2018-03-03T12:02:23.526Z,-2.83
2018-03-03T12:04:56.287Z,-2.72
2018-03-03T12:07:22.111Z,-2.57
2018-03-03T12:09:47.924Z,-2.59
2018-03-03T12:12:13.754Z,-2.52
2018-03-03T12:14:39.567Z,-2.46
2018-03-03T12:17:05.358Z,-2.50
2018-03-03T12:19:31.146Z,-2.25
2018-03-03T12:21:56.959Z,-2.25
2018-03-03T12:24:22.795Z,-2.19
2018-03-03T12:26:48.603Z,-2.21
2018-03-03T12:29:14.712Z,-1.88
2018-03-03T12:31:40.488Z,-1.79
2018-03-03T12:34:06.262Z,-0.86
2018-03-03T12:36:32.054Z,-1.09
2018-03-03T12:38:57.846Z,-1.33
2018-03-03T12:41:23.630Z,-0.99
2018-03-03T12:43:49.455Z,-1.17
2018-03-03T12:46:15.245Z,-0.44
2018-03-03T12:48:41.038Z,1.38
2018-03-03T12:51:06.902Z,1.58
2018-03-03T12:53:32.683Z,1.60
2018-03-03T12:55:58.472Z,-0.12
2018-03-03T12:58:24.320Z,-0.25
2018-03-03T13:00:50.079Z,-0.05
2018-03-03T13:03:15.875Z,-0.53
2018-03-03T13:05:41.713Z,-0.28
2018-03-03T13:08:07.499Z,0.07
2018-03-03T13:10:33.311Z,0.14
2018-03-03T13:12:59.098Z,0.19
2018-03-03T13:15:24.891Z,0.77
2018-03-03T13:17:50.799Z,1.24
2018-03-03T13:20:16.574Z,1.18
2018-03-03T13:22:42.351Z,0.78
2018-03-03T13:25:08.155Z,0.69
2018-03-03T13:27:33.995Z,1.14
2018-03-03T13:29:59.728Z,1.26
2018-03-03T13:32:25.534Z,1.24
2018-03-03T13:34:51.314Z,1.06
2018-03-03T13:37:17.103Z,0.86
2018-03-03T13:39:43.281Z,1.80
2018-03-03T13:42:09.074Z,1.51
2018-03-03T13:44:34.855Z,1.85
2018-03-03T13:47:00.674Z,2.28
2018-03-03T13:49:26.480Z,2.06
2018-03-03T13:51:52.259Z,2.29
2018-03-03T13:54:18.083Z,2.29
2018-03-03T13:56:43.952Z,1.90
2018-03-03T13:59:09.695Z,2.24
2018-03-03T14:01:35.514Z,2.15
2018-03-03T14:04:01.299Z,2.62
2018-03-03T14:06:27.104Z,2.82
2018-03-03T14:08:52.912Z,2.88
2018-03-03T14:11:18.726Z,2.21
2018-03-03T14:13:44.500Z,2.66
2018-03-03T14:16:10.300Z,2.75
2018-03-03T14:18:36.154Z,2.04
2018-03-03T14:21:01.954Z,1.83
2018-03-03T14:23:27.721Z,1.44
2018-03-03T14:25:53.765Z,1.24
2018-03-03T14:28:19.514Z,0.97
2018-03-03T14:30:45.299Z,0.75
2018-03-03T14:33:11.079Z,3.35
2018-03-03T14:35:36.888Z,1.32
2018-03-03T14:38:02.725Z,0.65
2018-03-03T14:40:28.526Z,0.45
2018-03-03T14:42:54.304Z,-0.06
2018-03-03T14:45:20.486Z,-0.18
2018-03-03T14:47:46.283Z,-0.37
2018-03-03T14:50:12.059Z,-0.22
2018-03-03T14:52:37.860Z,-0.19
2018-03-03T14:55:03.658Z,0.02
2018-03-03T14:57:29.434Z,-0.04
2018-03-03T14:59:55.331Z,0.13
2018-03-03T15:02:21.133Z,0.01
2018-03-03T15:04:46.911Z,-0.10
2018-03-03T15:07:12.735Z,-0.07
2018-03-03T15:09:38.522Z,-0.20
2018-03-03T15:12:04.320Z,-0.50
2018-03-03T15:14:30.124Z,0.11
2018-03-03T15:16:55.916Z,-0.12
2018-03-03T15:19:21.701Z,0.02
2018-03-03T15:21:47.490Z,-0.04
2018-03-03T15:24:13.290Z,-0.17
2018-03-03T15:26:39.120Z,-0.58
2018-03-03T15:29:04.928Z,2.42
2018-03-03T15:31:30.923Z,2.70
2018-03-03T15:33:56.707Z,2.09
2018-03-03T15:36:22.495Z,0.14
2018-03-03T15:38:48.482Z,-0.46
2018-03-03T15:41:14.268Z,-0.75
2018-03-03T15:43:40.059Z,-1.03
2018-03-03T15:46:05.858Z,-1.09
2018-03-03T15:48:31.674Z,-1.07
2018-03-03T15:50:57.466Z,-1.34
2018-03-03T15:53:23.257Z,-1.38
2018-03-03T15:55:49.078Z,-1.43
2018-03-03T15:58:14.866Z,-1.40
2018-03-03T16:00:40.651Z,-1.46
2018-03-03T16:03:06.444Z,-1.66
2018-03-03T16:05:32.250Z,-1.53
2018-03-03T16:07:58.048Z,-1.67
2018-03-03T16:10:23.847Z,-1.67
2018-03-03T16:12:49.640Z,-1.66
2018-03-03T16:15:22.360Z,-1.70
2018-03-03T16:17:48.160Z,-1.68
2018-03-03T16:20:13.959Z,-1.66
2018-03-03T16:22:39.842Z,-1.77
2018-03-03T16:25:05.652Z,-1.77
2018-03-03T16:27:31.446Z,-1.86
2018-03-03T16:29:57.261Z,-1.94
2018-03-03T16:32:23.052Z,-2.03
2018-03-03T16:34:48.835Z,-2.01
2018-03-03T16:37:14.984Z,-2.06
2018-03-03T16:39:40.775Z,-2.07
2018-03-03T16:42:06.550Z,-2.17
2018-03-03T16:44:32.360Z,-2.10
2018-03-03T16:46:58.142Z,-2.16
2018-03-03T16:49:23.930Z,-2.38
2018-03-03T16:51:49.996Z,-2.23
2018-03-03T16:54:15.787Z,-1.27
2018-03-03T16:56:41.578Z,-1.14
2018-03-03T16:59:07.458Z,-1.92
2018-03-03T17:01:33.246Z,-2.26
2018-03-03T17:03:59.019Z,-2.36
2018-03-03T17:06:24.816Z,-2.38
2018-03-03T17:08:50.627Z,-2.37
2018-03-03T17:11:16.438Z,-1.03
2018-03-03T17:13:42.269Z,0.82
2018-03-03T17:16:08.067Z,0.91
2018-03-03T17:18:33.866Z,0.94
2018-03-03T17:20:59.639Z,-0.62
2018-03-03T17:23:25.425Z,-1.01
2018-03-03T17:25:51.230Z,-1.82
2018-03-03T17:28:17.033Z,-1.99
2018-03-03T17:30:42.820Z,-1.88
2018-03-03T17:33:08.623Z,-1.76
2018-03-03T17:35:34.423Z,-1.80
2018-03-03T17:38:00.245Z,-1.73
2018-03-03T17:40:26.037Z,-1.66
2018-03-03T17:42:51.804Z,-1.64
2018-03-03T17:45:17.610Z,-2.00
2018-03-03T17:47:43.414Z,-1.99
2018-03-03T17:50:09.212Z,-1.75
2018-03-03T17:52:35.009Z,-2.25
2018-03-03T17:55:00.802Z,-2.58
2018-03-03T17:57:26.712Z,-2.69
2018-03-03T17:59:52.512Z,-2.80
2018-03-03T18:02:18.317Z,-2.93
2018-03-03T18:04:44.139Z,-3.10
2018-03-03T18:07:09.924Z,-3.14
2018-03-03T18:09:35.698Z,-3.24
2018-03-03T18:12:01.510Z,-3.17
2018-03-03T18:14:27.328Z,-3.14
2018-03-03T18:16:53.150Z,-3.22
2018-03-03T18:19:29.271Z,-3.31
2018-03-03T18:21:55.067Z,-3.42
2018-03-03T18:24:38.992Z,-3.41
2018-03-03T18:27:04.795Z,-3.43
2018-03-03T18:29:30.592Z,-3.29
2018-03-03T18:31:56.411Z,-3.35
2018-03-03T18:34:22.195Z,-3.41
2018-03-03T18:36:47.991Z,-3.38
2018-03-03T18:39:14.055Z,-3.36
2018-03-03T18:41:39.838Z,-3.45
2018-03-03T18:44:05.622Z,-3.57
2018-03-03T18:46:31.430Z,-3.49
2018-03-03T18:48:57.213Z,-3.58
2018-03-03T18:51:23.001Z,-3.60
2018-03-03T18:53:48.810Z,-3.65
2018-03-03T18:56:14.722Z,-3.73
2018-03-03T18:58:40.507Z,-3.70
2018-03-03T19:01:06.303Z,-3.68
2018-03-03T19:03:32.330Z,-3.71
2018-03-03T19:05:58.119Z,-3.73
2018-03-03T19:08:23.923Z,-3.96
2018-03-03T19:10:49.741Z,-4.10
2018-03-03T19:13:15.530Z,-4.15
2018-03-03T19:15:41.320Z,-4.21
2018-03-03T19:18:07.149Z,-4.24
2018-03-03T19:20:32.948Z,-2.87
2018-03-03T19:22:58.743Z,-3.42
2018-03-03T19:25:24.539Z,-3.34
2018-03-03T19:27:50.323Z,-4.11
2018-03-03T19:30:16.100Z,-4.32
2018-03-03T19:32:42.163Z,-4.42
2018-03-03T19:35:07.967Z,-4.50
2018-03-03T19:37:33.784Z,-4.56
2018-03-03T19:39:59.680Z,-4.61
2018-03-03T19:42:25.501Z,-4.59
2018-03-03T19:44:51.312Z,-4.57
2018-03-03T19:47:17.113Z,-4.53
2018-03-03T19:49:42.905Z,-4.62
2018-03-03T19:52:08.696Z,-4.67
2018-03-03T19:54:34.787Z,-4.66
2018-03-03T19:57:00.575Z,-4.70
2018-03-03T19:59:26.371Z,-4.71
2018-03-03T20:01:52.207Z,-4.75
2018-03-03T20:04:18.017Z,-4.79
2018-03-03T20:06:43.803Z,-4.84
2018-03-03T20:09:09.611Z,-4.82
2018-03-03T20:11:35.391Z,-4.90
2018-03-03T20:14:01.221Z,-4.94
2018-03-03T20:16:27.024Z,-4.93
2018-03-03T20:18:52.824Z,-5.03
2018-03-03T20:21:18.642Z,-5.00
2018-03-03T20:23:44.435Z,-5.05
2018-03-03T20:26:10.224Z,-5.05
2018-03-03T20:28:36.131Z,-5.12
2018-03-03T20:31:01.932Z,-5.14
2018-03-03T20:33:27.722Z,-5.20
2018-03-03T20:35:53.535Z,-5.27
2018-03-03T20:38:19.319Z,-5.21
2018-03-03T20:40:45.092Z,-5.26
2018-03-03T20:43:10.896Z,-5.21
2018-03-03T20:45:36.687Z,-5.27
2018-03-03T20:48:02.488Z,-5.31
2018-03-03T20:50:28.328Z,-5.40
2018-03-03T20:52:54.120Z,-5.41
2018-03-03T20:55:19.943Z,-5.41
2018-03-03T20:57:45.769Z,-5.36
2018-03-03T21:00:11.557Z,-5.38
2018-03-03T21:02:37.367Z,-5.46
2018-03-03T21:05:03.206Z,-5.39
2018-03-03T21:07:28.991Z,-5.42
2018-03-03T21:09:54.870Z,-5.47
2018-03-03T21:12:21.654Z,-5.46
2018-03-03T21:14:47.577Z,-5.52
2018-03-03T21:17:13.451Z,-5.49
2018-03-03T21:19:39.976Z,-5.60
2018-03-03T21:22:06.709Z,-2.96
2018-03-03T21:24:32.513Z,-4.52
2018-03-03T21:27:00.153Z,-5.16
2018-03-03T21:29:26.853Z,-5.48
2018-03-03T21:31:53.659Z,-5.46
2018-03-03T21:34:19.819Z,-5.54
2018-03-03T21:36:45.628Z,-5.58
2018-03-03T21:39:12.122Z,-5.63
2018-03-03T21:41:37.936Z,-5.65
2018-03-03T21:44:03.754Z,-5.62
2018-03-03T21:46:29.856Z,-5.71
2018-03-03T21:48:55.674Z,-5.85
2018-03-03T21:51:21.501Z,-5.88
2018-03-03T21:53:48.555Z,-5.94
2018-03-03T21:56:15.076Z,-5.99
2018-03-03T21:58:40.880Z,-5.90
2018-03-03T22:01:07.509Z,-5.93
2018-03-03T22:03:33.360Z,-5.89
2018-03-03T22:05:59.264Z,-5.94
2018-03-03T22:08:25.119Z,-5.90
2018-03-03T22:10:50.976Z,-6.01
2018-03-03T22:13:16.818Z,-6.08
2018-03-03T22:15:42.622Z,-6.04
2018-03-03T22:18:08.452Z,-5.13
2018-03-03T22:20:34.269Z,-5.65
2018-03-03T22:23:00.178Z,-5.87
2018-03-03T22:25:25.982Z,-5.94
2018-03-03T22:27:52.759Z,-5.89
2018-03-03T22:30:19.443Z,-6.06
2018-03-03T22:32:45.251Z,-6.06
2018-03-03T22:35:11.095Z,-6.07
2018-03-03T22:37:36.902Z,-6.13
2018-03-03T22:40:02.748Z,-6.16
2018-03-03T22:42:28.886Z,-6.15
2018-03-03T22:44:54.993Z,-3.76
2018-03-03T22:47:20.835Z,-3.82
2018-03-03T22:49:46.650Z,-4.75
2018-03-03T22:52:12.483Z,-5.12
2018-03-03T22:54:38.395Z,-5.26
2018-03-03T22:57:05.105Z,-5.10
2018-03-03T22:59:30.916Z,-5.22
2018-03-03T23:01:56.748Z,-4.98
2018-03-03T23:04:22.564Z,-5.36
2018-03-03T23:06:48.380Z,-5.29
2018-03-03T23:09:14.203Z,-5.21
2018-03-03T23:11:40.016Z,-5.21
2018-03-03T23:14:05.808Z,-5.47
2018-03-03T23:16:32.329Z,-5.48
2018-03-03T23:18:58.177Z,-5.42
2018-03-03T23:21:24.266Z,-5.02
2018-03-03T23:23:50.207Z,-5.16
2018-03-03T23:26:16.223Z,-5.26
2018-03-03T23:28:42.048Z,-5.18
2018-03-03T23:31:07.853Z,-5.09
2018-03-03T23:33:33.728Z,-5.26
2018-03-03T23:35:59.539Z,-5.25
2018-03-03T23:38:26.274Z,-5.21
2018-03-03T23:40:52.379Z,-5.13
2018-03-03T23:43:18.254Z,-5.57
2018-03-03T23:45:44.423Z,-5.30
2018-03-03T23:48:10.363Z,-5.39
2018-03-03T23:50:37.046Z,-5.49
2018-03-03T23:53:02.960Z,-5.22
2018-03-03T23:55:28.822Z,-5.46
2018-03-03T23:57:55.465Z,-5.10
